Time;durP1;ratioP1;P1;durP2;ratioP2;P2;SDS_P1;SDS_P2;PMS_P1;PMS_P2;Temp;Humidity;BMP_temperature;BMP_pressure;BME280_temperature;BME280_humidity;BME280_pressure;Samples;Min_cycle;Max_cycle;Signal;HPM_P1;HPM_P2
2021/05/12 00:01:42;;;;;;;5.30;2.20;;;17.80;47.20;;;;;;5090465;28;20209;-67
2021/05/12 00:04:08;;;;;;;4.97;2.10;;;17.80;47.60;;;;;;5095999;28;20208;-69
2021/05/12 00:06:35;;;;;;;4.70;2.17;;;17.70;47.70;;;;;;5094752;28;20292;-70
2021/05/12 00:09:02;;;;;;;2.92;2.03;;;17.70;47.60;;;;;;5095275;28;20207;-68
2021/05/12 00:11:29;;;;;;;2.53;2.00;;;17.60;47.70;;;;;;5099634;28;20232;-68
2021/05/12 00:13:55;;;;;;;5.53;2.13;;;17.60;47.90;;;;;;5100097;28;20780;-68
2021/05/12 00:16:21;;;;;;;5.50;2.80;;;17.50;47.90;;;;;;5104405;28;20688;-68
2021/05/12 00:18:48;;;;;;;3.20;2.33;;;17.50;47.90;;;;;;5097573;28;20237;-68
2021/05/12 00:21:24;;;;;;;6.03;2.30;;;17.50;47.90;;;;;;5102847;28;20192;-69
2021/05/12 00:23:58;;;;;;;4.30;2.13;;;17.40;47.80;;;;;;5091629;28;20296;-69
2021/05/12 00:26:28;;;;;;;3.50;2.03;;;17.40;47.70;;;;;;5091619;28;20596;-68
2021/05/12 00:28:54;;;;;;;4.40;2.28;;;17.30;48.30;;;;;;5101303;28;20207;-69
2021/05/12 00:31:21;;;;;;;2.72;2.30;;;17.30;47.70;;;;;;5105149;28;20226;-69
2021/05/12 00:33:47;;;;;;;2.60;2.00;;;17.30;47.70;;;;;;5095612;28;20553;-68
2021/05/12 00:36:14;;;;;;;5.30;2.40;;;17.20;47.80;;;;;;5095248;28;20526;-68
2021/05/12 00:38:40;;;;;;;4.60;2.63;;;17.20;47.90;;;;;;5099109;28;20720;-69
2021/05/12 00:41:06;;;;;;;8.63;2.43;;;17.10;47.90;;;;;;5107099;27;20200;-68
2021/05/12 00:43:34;;;;;;;4.17;2.23;;;17.10;48.00;;;;;;5094227;28;20282;-68
2021/05/12 00:46:00;;;;;;;5.93;2.50;;;17.10;48.00;;;;;;5096635;28;20244;-68
2021/05/12 00:48:26;;;;;;;4.07;2.27;;;17.10;48.00;;;;;;5099040;28;20630;-68
2021/05/12 00:50:53;;;;;;;3.27;2.00;;;17.10;47.90;;;;;;5099931;28;21425;-69
2021/05/12 00:53:19;;;;;;;8.47;2.30;;;17.10;47.90;;;;;;5091455;28;20522;-69
2021/05/12 00:55:45;;;;;;;5.13;2.43;;;17.00;47.80;;;;;;5097346;28;20295;-70
2021/05/12 00:58:12;;;;;;;3.80;1.83;;;17.00;47.80;;;;;;5094032;28;20274;-70
2021/05/12 01:00:39;;;;;;;3.20;2.03;;;17.00;47.90;;;;;;5092167;28;20668;-68
2021/05/12 01:03:06;;;;;;;3.07;1.90;;;17.00;47.90;;;;;;5100950;28;20205;-69
2021/05/12 01:05:58;;;;;;;4.77;2.20;;;17.00;47.90;;;;;;5100329;28;20208;-69
2021/05/12 01:08:25;;;;;;;5.93;2.37;;;16.90;47.90;;;;;;5094963;28;20226;-69
2021/05/12 01:10:52;;;;;;;3.20;2.00;;;16.90;48.00;;;;;;5102436;28;20216;-69
2021/05/12 01:13:18;;;;;;;5.57;2.00;;;16.80;47.90;;;;;;5102414;28;20288;-68
2021/05/12 01:15:45;;;;;;;4.93;2.20;;;16.80;47.90;;;;;;5094642;28;20247;-69
2021/05/12 01:18:14;;;;;;;5.90;2.20;;;16.80;47.90;;;;;;5093501;28;20697;-68
2021/05/12 01:20:49;;;;;;;3.30;1.90;;;16.80;48.00;;;;;;5102073;28;20199;-68
2021/05/12 01:23:16;;;;;;;3.63;2.10;;;16.80;48.10;;;;;;5091749;28;20633;-68
2021/05/12 01:25:43;;;;;;;3.53;2.27;;;16.70;47.90;;;;;;5104682;28;20250;-68
2021/05/12 01:28:09;;;;;;;3.90;2.10;;;16.70;47.90;;;;;;5105721;28;20296;-68
2021/05/12 01:30:36;;;;;;;4.47;2.07;;;16.70;48.00;;;;;;5101394;28;20238;-68
2021/05/12 01:33:02;;;;;;;3.67;2.10;;;16.70;48.10;;;;;;5095477;28;20254;-67
2021/05/12 01:35:28;;;;;;;4.17;2.33;;;16.60;48.10;;;;;;5093639;28;20620;-69
2021/05/12 01:37:56;;;;;;;8.83;2.13;;;16.60;48.20;;;;;;5089168;28;20315;-68
2021/05/12 01:40:22;;;;;;;4.83;2.00;;;16.60;48.30;;;;;;5092381;28;20308;-68
2021/05/12 01:42:49;;;;;;;2.53;2.10;;;16.60;48.20;;;;;;5091920;28;20204;-68
2021/05/12 01:45:16;;;;;;;3.07;1.97;;;16.50;48.30;;;;;;5092430;28;20283;-68
2021/05/12 01:47:43;;;;;;;4.67;2.37;;;16.60;48.50;;;;;;5093584;28;20205;-68
2021/05/12 01:50:12;;;;;;;3.97;2.27;;;16.50;48.30;;;;;;5105238;28;20327;-68
2021/05/12 01:52:42;;;;;;;4.73;2.10;;;16.50;48.30;;;;;;5107025;28;20298;-68
2021/05/12 01:55:12;;;;;;;2.53;2.00;;;16.40;48.30;;;;;;5098268;28;20291;-68
2021/05/12 01:57:41;;;;;;;4.20;2.00;;;16.40;48.30;;;;;;5094480;28;20200;-69
2021/05/12 02:00:22;;;;;;;2.40;1.80;;;16.40;48.80;;;;;;5091121;28;20299;-68
2021/05/12 02:02:49;;;;;;;4.20;2.30;;;16.30;49.00;;;;;;5091471;28;20200;-68
2021/05/12 02:05:15;;;;;;;2.80;1.87;;;16.30;49.00;;;;;;5104564;28;20204;-68
2021/05/12 02:07:42;;;;;;;3.50;2.00;;;16.20;49.20;;;;;;5102798;28;20311;-69
2021/05/12 02:10:10;;;;;;;2.93;2.20;;;16.20;49.20;;;;;;5097092;28;20229;-68
2021/05/12 02:12:36;;;;;;;3.17;1.80;;;16.10;49.30;;;;;;5096606;28;20211;-70
2021/05/12 02:15:04;;;;;;;3.00;2.27;;;16.10;49.40;;;;;;5094382;28;20220;-69
2021/05/12 02:17:31;;;;;;;4.80;2.30;;;16.10;49.40;;;;;;5094090;28;20324;-69
2021/05/12 02:19:57;;;;;;;3.87;1.80;;;16.00;49.20;;;;;;5093268;28;20208;-69
2021/05/12 02:22:23;;;;;;;3.30;1.80;;;16.10;49.40;;;;;;5094353;28;20288;-69
2021/05/12 02:24:50;;;;;;;4.47;2.37;;;16.00;49.30;;;;;;5091903;28;20331;-69
2021/05/12 02:27:17;;;;;;;4.13;2.03;;;16.00;49.30;;;;;;5101364;28;20254;-69
2021/05/12 02:29:44;;;;;;;3.50;1.90;;;16.00;49.30;;;;;;5098307;28;20281;-69
2021/05/12 02:32:10;;;;;;;3.93;1.80;;;16.00;49.30;;;;;;5098861;28;20652;-69
2021/05/12 02:34:37;;;;;;;4.17;2.00;;;16.00;49.30;;;;;;5090647;28;20196;-69
2021/05/12 02:37:03;;;;;;;3.47;2.10;;;16.00;49.40;;;;;;5105747;28;20207;-69
2021/05/12 02:39:29;;;;;;;6.17;1.87;;;16.00;49.40;;;;;;5098405;28;20327;-68
2021/05/12 02:41:56;;;;;;;3.10;2.07;;;15.90;49.40;;;;;;5105980;28;20239;-69
2021/05/12 02:44:23;;;;;;;3.27;2.07;;;15.90;49.60;;;;;;5097828;28;20547;-69
2021/05/12 02:46:50;;;;;;;3.77;2.20;;;15.90;49.60;;;;;;5103734;28;20727;-69
2021/05/12 02:49:16;;;;;;;2.57;2.00;;;15.90;49.80;;;;;;5093525;28;20203;-68
2021/05/12 02:51:43;;;;;;;4.57;2.37;;;15.90;49.80;;;;;;5091305;28;20216;-68
2021/05/12 02:54:09;;;;;;;6.60;2.00;;;15.80;49.70;;;;;;5096425;28;20331;-68
2021/05/12 02:56:36;;;;;;;4.50;2.20;;;15.80;49.90;;;;;;5108560;28;20239;-69
2021/05/12 02:59:03;;;;;;;4.10;1.80;;;15.80;49.80;;;;;;5100616;28;20201;-69
2021/05/12 03:01:30;;;;;;;2.63;1.80;;;15.80;49.90;;;;;;5098678;28;20704;-68
2021/05/12 03:03:56;;;;;;;4.67;1.90;;;15.80;50.00;;;;;;5098059;28;20349;-68
2021/05/12 03:06:23;;;;;;;3.63;2.00;;;15.80;50.10;;;;;;5093410;28;20227;-67
2021/05/12 03:08:49;;;;;;;2.20;1.67;;;15.80;50.10;;;;;;5098850;28;20283;-68
2021/05/12 03:11:16;;;;;;;3.20;1.87;;;15.70;50.00;;;;;;5095639;28;20709;-68
2021/05/12 03:13:42;;;;;;;3.93;1.83;;;15.70;50.00;;;;;;5096205;28;20224;-68
2021/05/12 03:16:08;;;;;;;3.47;2.13;;;15.80;50.20;;;;;;5090073;28;20247;-69
2021/05/12 03:18:35;;;;;;;3.83;2.00;;;15.80;50.30;;;;;;5111424;28;20214;-69
2021/05/12 03:21:02;;;;;;;4.43;2.30;;;15.80;50.40;;;;;;5094557;28;20193;-68
2021/05/12 03:23:29;;;;;;;4.83;2.30;;;15.80;50.40;;;;;;5096598;28;20628;-68
2021/05/12 03:25:55;;;;;;;3.67;2.23;;;15.80;50.40;;;;;;5091599;28;20348;-68
2021/05/12 03:28:22;;;;;;;4.27;2.10;;;15.80;50.50;;;;;;5097381;28;20207;-69
2021/05/12 03:30:48;;;;;;;3.30;2.10;;;15.80;50.40;;;;;;5090576;28;20220;-67
2021/05/12 03:33:15;;;;;;;4.33;2.50;;;15.80;50.30;;;;;;5101201;28;20725;-68
2021/05/12 03:35:42;;;;;;;3.77;2.10;;;15.90;50.30;;;;;;5092336;28;20565;-69
2021/05/12 03:38:10;;;;;;;4.13;2.00;;;15.90;50.40;;;;;;5094010;28;20284;-68
2021/05/12 03:40:39;;;;;;;6.87;2.10;;;15.90;50.40;;;;;;5096882;28;20235;-69
2021/05/12 03:43:05;;;;;;;9.07;2.07;;;16.00;50.50;;;;;;5093998;28;20730;-68
2021/05/12 03:45:32;;;;;;;5.60;2.10;;;15.90;50.40;;;;;;5093363;28;20213;-68
2021/05/12 03:47:59;;;;;;;2.77;1.60;;;16.00;50.40;;;;;;5100244;28;20566;-68
2021/05/12 03:50:27;;;;;;;3.30;2.30;;;16.00;50.40;;;;;;5100482;28;20311;-69
2021/05/12 03:52:56;;;;;;;3.97;2.60;;;16.00;50.50;;;;;;5106249;28;20620;-69
2021/05/12 03:55:22;;;;;;;4.63;2.10;;;16.00;50.60;;;;;;5096903;28;20298;-69
2021/05/12 03:57:49;;;;;;;2.47;1.83;;;16.00;50.70;;;;;;5113295;28;20200;-69
2021/05/12 04:00:16;;;;;;;2.60;1.93;;;16.10;50.60;;;;;;5094299;28;20192;-69
2021/05/12 04:02:43;;;;;;;4.60;2.43;;;16.10;50.70;;;;;;5103529;28;20228;-69
2021/05/12 04:05:11;;;;;;;5.33;2.00;;;16.10;50.70;;;;;;5092932;28;20205;-68
2021/05/12 04:07:37;;;;;;;3.37;1.87;;;16.20;50.80;;;;;;5103269;28;20203;-68
2021/05/12 04:10:06;;;;;;;5.70;2.07;;;16.20;50.70;;;;;;5096079;28;20224;-68
2021/05/12 04:12:33;;;;;;;6.83;2.20;;;16.20;50.80;;;;;;5103820;28;20205;-69
2021/05/12 04:14:59;;;;;;;5.20;2.17;;;16.30;50.80;;;;;;5098874;28;20247;-68
2021/05/12 04:17:26;;;;;;;6.33;1.73;;;16.30;50.70;;;;;;5102698;28;20648;-68
2021/05/12 04:19:53;;;;;;;5.57;1.97;;;16.30;50.70;;;;;;5094191;28;20300;-69
2021/05/12 04:22:19;;;;;;;3.77;1.83;;;16.30;50.70;;;;;;5092710;28;20215;-68
2021/05/12 04:24:46;;;;;;;4.30;1.80;;;16.30;51.40;;;;;;5095756;28;20296;-68
2021/05/12 04:27:13;;;;;;;3.10;2.13;;;16.30;50.80;;;;;;5098420;28;20291;-67
2021/05/12 04:29:40;;;;;;;2.40;2.17;;;16.30;50.80;;;;;;5094914;28;20227;-67
2021/05/12 04:32:07;;;;;;;8.10;2.17;;;16.40;50.90;;;;;;5100159;28;20276;-68
2021/05/12 04:34:34;;;;;;;3.40;2.20;;;16.40;50.90;;;;;;5098354;28;20212;-68
2021/05/12 04:37:00;;;;;;;2.53;1.70;;;16.40;50.90;;;;;;5097922;28;20204;-68
2021/05/12 04:39:26;;;;;;;8.70;2.23;;;16.40;51.00;;;;;;5091300;28;20693;-69
2021/05/12 04:41:53;;;;;;;5.30;2.13;;;16.50;51.00;;;;;;5098524;28;20311;-67
2021/05/12 04:44:20;;;;;;;2.67;2.17;;;16.50;51.10;;;;;;5102870;28;20584;-68
2021/05/12 04:46:49;;;;;;;6.87;2.23;;;16.50;51.10;;;;;;5094901;28;20207;-69
2021/05/12 04:49:15;;;;;;;9.77;2.30;;;16.50;51.10;;;;;;5094119;28;20683;-69
2021/05/12 04:51:41;;;;;;;4.63;2.03;;;16.60;51.10;;;;;;5091549;28;20751;-68
2021/05/12 04:54:08;;;;;;;9.33;2.37;;;16.60;51.10;;;;;;5105464;28;20200;-69
2021/05/12 04:56:35;;;;;;;3.80;2.27;;;16.70;51.00;;;;;;5100849;28;20215;-68
2021/05/12 04:59:02;;;;;;;5.43;2.40;;;16.80;51.10;;;;;;5102180;28;20288;-69
2021/05/12 05:01:30;;;;;;;5.63;2.30;;;16.80;51.10;;;;;;5098222;28;20689;-68
2021/05/12 05:03:58;;;;;;;4.90;2.20;;;16.90;51.20;;;;;;5103514;28;20226;-68
2021/05/12 05:06:24;;;;;;;5.20;2.10;;;16.90;51.00;;;;;;5097177;28;20622;-68
2021/05/12 05:08:50;;;;;;;4.60;2.07;;;17.00;51.00;;;;;;5092569;28;20209;-68
2021/05/12 05:11:17;;;;;;;5.07;2.47;;;17.10;51.10;;;;;;5107825;28;20677;-68
2021/05/12 05:13:43;;;;;;;3.60;2.17;;;17.10;50.90;;;;;;5097883;28;20232;-68
2021/05/12 05:16:10;;;;;;;7.00;2.10;;;17.20;51.00;;;;;;5092098;28;20797;-68
2021/05/12 05:18:37;;;;;;;5.43;2.37;;;17.20;50.90;;;;;;5101024;28;20233;-69
2021/05/12 05:21:06;;;;;;;5.70;2.50;;;17.30;51.00;;;;;;5096687;28;20197;-69
2021/05/12 05:23:33;;;;;;;4.97;2.03;;;17.30;51.00;;;;;;5094969;28;20621;-69
2021/05/12 05:26:00;;;;;;;4.13;2.00;;;17.40;51.10;;;;;;5099197;28;20226;-68
2021/05/12 05:28:26;;;;;;;3.45;1.77;;;17.50;51.30;;;;;;5091214;28;20650;-68
2021/05/12 05:30:52;;;;;;;5.43;2.60;;;17.50;51.10;;;;;;5093712;28;20259;-69
2021/05/12 05:33:19;;;;;;;6.90;1.92;;;17.60;51.10;;;;;;5093758;28;20212;-70
2021/05/12 05:35:46;;;;;;;5.83;2.20;;;17.60;50.90;;;;;;5097166;28;20220;-69
2021/05/12 05:38:12;;;;;;;4.73;1.97;;;17.70;51.00;;;;;;5095655;28;20203;-68
2021/05/12 05:40:39;;;;;;;6.80;1.80;;;17.80;51.10;;;;;;5094818;28;20205;-69
2021/05/12 05:43:08;;;;;;;4.07;1.97;;;17.80;51.10;;;;;;5102806;28;20724;-69
2021/05/12 05:45:34;;;;;;;5.23;2.00;;;17.90;51.00;;;;;;5099952;28;20246;-68
2021/05/12 05:48:01;;;;;;;7.83;2.50;;;18.00;51.00;;;;;;5099825;28;20934;-71
2021/05/12 05:50:28;;;;;;;4.03;2.17;;;18.10;51.00;;;;;;5090976;28;20325;-70
2021/05/12 05:52:56;;;;;;;6.47;2.00;;;18.20;51.10;;;;;;5093803;27;20200;-72
2021/05/12 05:55:22;;;;;;;8.43;2.17;;;18.20;51.10;;;;;;5092015;28;20197;-72
2021/05/12 05:57:50;;;;;;;5.30;1.80;;;18.30;50.90;;;;;;5100327;28;20208;-71
2021/05/12 06:00:17;;;;;;;5.33;2.33;;;18.40;51.00;;;;;;5096185;28;20205;-70
2021/05/12 06:02:44;;;;;;;3.20;1.90;;;18.50;50.90;;;;;;5097457;28;20223;-71
2021/05/12 06:05:11;;;;;;;5.82;2.22;;;18.50;50.60;;;;;;5097876;28;20200;-71
2021/05/12 06:07:37;;;;;;;8.55;2.17;;;18.60;50.40;;;;;;5094722;28;20200;-69
2021/05/12 06:10:07;;;;;;;5.47;2.00;;;18.70;50.50;;;;;;5090867;28;20251;-70
2021/05/12 06:12:33;;;;;;;4.07;2.20;;;18.80;50.50;;;;;;5092817;28;20201;-69
2021/05/12 06:15:00;;;;;;;6.88;2.20;;;18.90;50.40;;;;;;5094287;28;20230;-70
2021/05/12 06:17:26;;;;;;;2.92;1.88;;;19.00;50.10;;;;;;5095701;28;20205;-69
2021/05/12 06:19:53;;;;;;;4.97;1.90;;;19.10;50.10;;;;;;5097481;28;20564;-70
2021/05/12 06:22:19;;;;;;;6.18;2.00;;;19.20;50.70;;;;;;5096334;28;20196;-70
2021/05/12 06:24:46;;;;;;;3.95;2.10;;;19.30;49.90;;;;;;5093321;28;20201;-70
2021/05/12 06:27:13;;;;;;;7.75;2.28;;;19.40;49.80;;;;;;5103591;27;20232;-68
2021/05/12 06:29:40;;;;;;;6.15;2.60;;;19.50;49.60;;;;;;5097358;28;20620;-68
2021/05/12 06:32:07;;;;;;;7.32;2.45;;;19.60;49.50;;;;;;5093362;28;20267;-69
2021/05/12 06:34:34;;;;;;;3.67;2.20;;;19.60;49.20;;;;;;5093234;28;20673;-69
2021/05/12 06:37:01;;;;;;;7.20;2.20;;;19.70;48.90;;;;;;5108661;28;20673;-69
2021/05/12 06:39:28;;;;;;;5.72;1.88;;;19.80;49.10;;;;;;5101743;28;20202;-69
2021/05/12 06:41:55;;;;;;;3.63;2.25;;;19.90;48.80;;;;;;5100624;28;20207;-69
2021/05/12 06:44:23;;;;;;;5.10;2.30;;;20.00;48.50;;;;;;5098428;28;20208;-69
2021/05/12 06:46:51;;;;;;;5.07;2.50;;;20.00;48.70;;;;;;5108438;28;20204;-70
2021/05/12 06:49:17;;;;;;;4.95;2.58;;;20.20;48.60;;;;;;5108362;28;20205;-69
2021/05/12 06:51:44;;;;;;;3.33;2.70;;;20.20;48.30;;;;;;5103883;28;20220;-69
2021/05/12 06:54:10;;;;;;;9.43;5.18;;;20.40;48.50;;;;;;5110157;28;20637;-69
2021/05/12 06:56:36;;;;;;;9.35;5.03;;;20.50;48.60;;;;;;5103977;28;20208;-70
2021/05/12 06:59:04;;;;;;;9.88;4.70;;;20.60;48.60;;;;;;5100658;28;20253;-71
2021/05/12 07:01:32;;;;;;;8.60;3.05;;;20.80;49.10;;;;;;5092576;28;20315;-70
2021/05/12 07:03:58;;;;;;;4.03;2.38;;;20.90;47.90;;;;;;5091778;28;20251;-71
2021/05/12 07:06:24;;;;;;;5.05;2.08;;;21.00;48.10;;;;;;5098319;28;20688;-71
2021/05/12 07:08:51;;;;;;;4.38;1.80;;;21.10;47.80;;;;;;5096404;28;20208;-71
2021/05/12 07:11:18;;;;;;;7.18;2.58;;;21.20;47.60;;;;;;5094557;28;20213;-70
2021/05/12 07:13:45;;;;;;;3.65;1.45;;;21.20;47.50;;;;;;5092137;28;20228;-69
2021/05/12 07:16:11;;;;;;;8.13;1.85;;;21.40;47.50;;;;;;5093078;28;20212;-69
2021/05/12 07:18:38;;;;;;;4.20;1.92;;;21.40;47.60;;;;;;5098901;28;20234;-68
2021/05/12 07:21:05;;;;;;;6.45;1.63;;;21.50;47.80;;;;;;5094649;28;20288;-67
2021/05/12 07:23:32;;;;;;;5.15;1.90;;;21.60;47.90;;;;;;5098427;28;20218;-67
2021/05/12 07:25:58;;;;;;;4.68;1.60;;;21.70;48.00;;;;;;5107087;28;20219;-68
2021/05/12 07:28:25;;;;;;;5.00;2.10;;;21.80;48.00;;;;;;5097648;28;20260;-68
2021/05/12 07:30:52;;;;;;;3.35;1.60;;;22.00;48.20;;;;;;5094592;28;20315;-66
2021/05/12 07:33:18;;;;;;;2.08;1.40;;;22.20;47.60;;;;;;5103775;28;20730;-66
2021/05/12 07:35:46;;;;;;;4.53;1.48;;;22.30;47.50;;;;;;5104171;28;20235;-68
2021/05/12 07:38:13;;;;;;;4.03;1.63;;;22.50;47.60;;;;;;5110664;28;20339;-67
2021/05/12 07:40:39;;;;;;;3.03;1.33;;;22.60;47.40;;;;;;5091459;28;20746;-70
2021/05/12 07:43:09;;;;;;;1.80;1.65;;;22.70;46.90;;;;;;5094881;28;20205;-68
2021/05/12 07:45:37;;;;;;;6.05;1.70;;;22.80;47.10;;;;;;5097409;28;20249;-71
2021/05/12 07:48:05;;;;;;;3.22;1.33;;;22.80;46.90;;;;;;5101992;28;20614;-70
2021/05/12 07:50:32;;;;;;;6.45;1.73;;;22.90;47.10;;;;;;5094099;28;20807;-70
2021/05/12 07:53:00;;;;;;;5.20;1.77;;;22.90;46.80;;;;;;5101078;28;20213;-70
2021/05/12 07:55:28;;;;;;;4.50;1.90;;;22.90;46.40;;;;;;5095622;28;20708;-68
2021/05/12 07:57:55;;;;;;;4.30;1.40;;;22.90;46.90;;;;;;5099455;28;20212;-69
2021/05/12 08:00:23;;;;;;;2.22;1.23;;;23.00;46.60;;;;;;5099941;28;20310;-67
2021/05/12 08:02:49;;;;;;;6.35;1.63;;;23.10;46.80;;;;;;5095013;28;20208;-68
2021/05/12 08:05:16;;;;;;;9.00;1.58;;;23.10;46.70;;;;;;5109089;28;20276;-68
2021/05/12 08:07:42;;;;;;;3.70;1.50;;;23.30;46.90;;;;;;5106811;28;20554;-68
2021/05/12 08:10:11;;;;;;;6.82;1.33;;;23.40;46.70;;;;;;5097977;28;20205;-70
2021/05/12 08:12:38;;;;;;;9.15;2.75;;;23.50;46.50;;;;;;5112289;28;20207;-69
2021/05/12 08:15:06;;;;;;;3.50;1.63;;;23.60;46.70;;;;;;5102370;28;20589;-69
2021/05/12 08:17:33;;;;;;;3.90;1.70;;;23.80;46.60;;;;;;5097399;28;20197;-70
2021/05/12 08:20:01;;;;;;;5.93;2.20;;;24.00;46.50;;;;;;5097666;28;20575;-70
2021/05/12 08:22:27;;;;;;;4.25;1.65;;;24.10;46.50;;;;;;5091424;28;20261;-70
2021/05/12 08:24:54;;;;;;;6.93;1.40;;;24.30;46.30;;;;;;5097342;28;20216;-70
2021/05/12 08:27:21;;;;;;;2.72;1.50;;;24.40;46.20;;;;;;5096395;28;20232;-69
2021/05/12 08:29:48;;;;;;;3.30;1.98;;;24.50;45.80;;;;;;5096102;28;20228;-70
2021/05/12 08:32:16;;;;;;;2.42;1.50;;;24.60;45.70;;;;;;5096610;28;20220;-70
2021/05/12 08:34:42;;;;;;;2.53;1.23;;;24.60;45.60;;;;;;5096597;28;20672;-72
2021/05/12 08:37:08;;;;;;;9.57;1.92;;;24.60;45.40;;;;;;5096728;28;20236;-69
2021/05/12 08:39:35;;;;;;;7.13;1.77;;;24.70;45.60;;;;;;5097594;28;20342;-71
2021/05/12 08:42:02;;;;;;;4.45;1.60;;;24.80;45.30;;;;;;5113444;28;20295;-70
2021/05/12 08:44:33;;;;;;;2.95;1.30;;;24.90;45.10;;;;;;5109039;28;20232;-70
2021/05/12 08:47:00;;;;;;;2.38;1.52;;;25.00;45.10;;;;;;5103879;28;20232;-69
2021/05/12 08:49:27;;;;;;;6.00;1.60;;;25.00;44.50;;;;;;5095834;28;20201;-68
2021/05/12 08:51:54;;;;;;;3.38;1.40;;;25.10;44.10;;;;;;5094983;28;20221;-66
2021/05/12 08:54:22;;;;;;;4.32;1.35;;;25.10;44.20;;;;;;5096857;28;20197;-71
2021/05/12 08:56:49;;;;;;;4.45;1.30;;;25.20;43.50;;;;;;5100187;28;20245;-71
2021/05/12 08:59:16;;;;;;;4.38;1.90;;;25.30;43.50;;;;;;5102724;28;20205;-72
2021/05/12 09:01:44;;;;;;;5.57;1.48;;;25.50;44.00;;;;;;5097397;28;20207;-70
2021/05/12 09:04:12;;;;;;;1.50;1.40;;;25.50;42.80;;;;;;5097581;28;20207;-72
2021/05/12 09:06:39;;;;;;;6.88;1.73;;;25.60;43.10;;;;;;5099524;28;20291;-74
2021/05/12 09:09:07;;;;;;;5.45;1.48;;;25.60;43.10;;;;;;5104067;28;20239;-70
2021/05/12 09:11:34;;;;;;;9.18;1.98;;;25.70;43.10;;;;;;5096220;28;20356;-71
2021/05/12 09:14:01;;;;;;;6.35;1.80;;;25.80;43.10;;;;;;5092710;28;20307;-72
2021/05/12 09:16:29;;;;;;;5.57;1.92;;;26.00;43.00;;;;;;5095520;28;20210;-70
2021/05/12 09:19:05;;;;;;;2.60;1.88;;;26.20;43.10;;;;;;5093540;28;20561;-71
2021/05/12 09:21:44;;;;;;;4.38;1.40;;;26.40;42.50;;;;;;5101853;28;20215;-71
2021/05/12 09:24:29;;;;;;;3.03;1.50;;;26.50;41.20;;;;;;5100203;28;20218;-71
2021/05/12 09:26:57;;;;;;;2.95;1.00;;;26.50;42.10;;;;;;5097054;28;20223;-71
2021/05/12 09:29:26;;;;;;;2.95;1.00;;;26.60;41.40;;;;;;5099627;28;20230;-72
2021/05/12 09:32:00;;;;;;;3.80;1.33;;;26.60;41.20;;;;;;5096302;28;20232;-71
2021/05/12 09:34:28;;;;;;;5.05;1.52;;;26.70;41.80;;;;;;5097269;28;20732;-70
2021/05/12 09:36:54;;;;;;;5.07;1.17;;;26.90;41.20;;;;;;5100640;28;20266;-72
2021/05/12 09:39:21;;;;;;;4.75;1.40;;;26.90;41.00;;;;;;5107174;27;20295;-72
2021/05/12 09:41:48;;;;;;;2.88;1.05;;;27.10;40.90;;;;;;5103135;28;20238;-72
2021/05/12 09:44:28;;;;;;;4.75;1.30;;;27.10;40.70;;;;;;5092832;28;20251;-71
2021/05/12 09:47:01;;;;;;;3.00;1.23;;;27.10;40.80;;;;;;5092458;28;20201;-70
2021/05/12 09:49:29;;;;;;;4.50;1.50;;;27.20;40.90;;;;;;5089711;28;20211;-69
2021/05/12 09:51:58;;;;;;;8.98;1.60;;;27.30;40.50;;;;;;5093725;28;20235;-71
2021/05/12 09:54:28;;;;;;;4.00;1.30;;;27.40;40.80;;;;;;5097336;28;20619;-70
2021/05/12 09:56:56;;;;;;;3.90;1.20;;;27.40;41.20;;;;;;5096562;28;20719;-71
2021/05/12 09:59:26;;;;;;;3.42;1.30;;;27.40;41.10;;;;;;5097448;28;20204;-70
2021/05/12 10:01:55;;;;;;;5.68;1.70;;;27.50;41.00;;;;;;5099589;28;20203;-71
2021/05/12 10:04:29;;;;;;;5.75;1.10;;;27.60;41.70;;;;;;5106986;28;20494;-71
2021/05/12 10:06:58;;;;;;;3.65;1.35;;;27.80;41.20;;;;;;5093330;28;20206;-70
2021/05/12 10:09:26;;;;;;;4.07;1.50;;;27.90;40.70;;;;;;5102198;28;20690;-70
2021/05/12 10:12:17;;;;;;;6.30;1.27;;;27.90;40.80;;;;;;5100086;28;21027;-71
2021/05/12 10:14:46;;;;;;;3.83;1.20;;;28.10;40.30;;;;;;5088022;28;20607;-72
2021/05/12 10:17:15;;;;;;;4.85;1.63;;;28.00;39.70;;;;;;5098866;28;20203;-72
2021/05/12 10:19:43;;;;;;;4.35;1.15;;;28.10;39.90;;;;;;5103339;28;20200;-71
2021/05/12 10:22:12;;;;;;;5.68;1.80;;;28.20;39.60;;;;;;5098938;28;20234;-71
2021/05/12 10:24:41;;;;;;;3.95;1.38;;;28.10;39.20;;;;;;5100281;28;20257;-71
2021/05/12 10:27:09;;;;;;;2.75;1.20;;;28.20;39.50;;;;;;5091409;28;20263;-72
2021/05/12 10:29:38;;;;;;;3.17;1.40;;;28.30;39.20;;;;;;5099388;28;20478;-67
2021/05/12 10:32:23;;;;;;;4.13;1.40;;;28.30;38.70;;;;;;5094468;28;20311;-68
2021/05/12 10:34:59;;;;;;;2.40;1.05;;;28.40;38.80;;;;;;5093873;28;20204;-67
2021/05/12 10:37:28;;;;;;;3.70;1.27;;;28.40;38.70;;;;;;5097357;28;20204;-67
2021/05/12 10:39:59;;;;;;;3.78;1.30;;;28.40;38.60;;;;;;5093059;28;20196;-69
2021/05/12 10:42:51;;;;;;;3.38;1.40;;;28.40;38.40;;;;;;5098145;28;20196;-69
2021/05/12 10:45:21;;;;;;;5.10;1.30;;;28.40;39.10;;;;;;5093703;28;20282;-67
2021/05/12 10:47:48;;;;;;;3.80;1.38;;;28.40;39.10;;;;;;5094012;28;20235;-68
2021/05/12 10:50:16;;;;;;;9.27;1.38;;;28.40;39.10;;;;;;5096591;28;20214;-68
2021/05/12 10:53:19;;;;;;;3.22;1.10;;;28.50;39.00;;;;;;5097185;28;20225;-69
2021/05/12 10:56:10;;;;;;;6.45;1.58;;;28.60;39.10;;;;;;5095068;28;20208;-67
2021/05/12 10:59:04;;;;;;;4.88;1.50;;;28.70;38.90;;;;;;5085106;28;20230;-69
2021/05/12 11:01:34;;;;;;;3.05;1.10;;;28.70;38.60;;;;;;5094363;28;20213;-69
2021/05/12 11:04:06;;;;;;;4.43;1.20;;;28.80;38.80;;;;;;5101398;28;20199;-71
2021/05/12 11:07:10;;;;;;;3.78;1.48;;;28.80;38.40;;;;;;5101769;28;20208;-70
2021/05/12 11:09:46;;;;;;;6.80;1.52;;;28.80;39.00;;;;;;5099651;28;20207;-69
2021/05/12 11:12:16;;;;;;;3.15;1.30;;;28.80;39.30;;;;;;5104700;28;20211;-69
2021/05/12 11:14:58;;;;;;;4.38;1.20;;;28.90;38.20;;;;;;5113739;28;20270;-68
2021/05/12 11:17:43;;;;;;;1.95;1.00;;;29.00;38.40;;;;;;5097536;28;20200;-72
2021/05/12 11:20:21;;;;;;;3.97;1.35;;;29.00;38.10;;;;;;5111651;28;20196;-70
2021/05/12 11:22:50;;;;;;;3.33;1.30;;;29.10;38.40;;;;;;5094417;28;20240;-70
2021/05/12 11:25:21;;;;;;;4.18;1.17;;;29.10;37.80;;;;;;5098078;28;20208;-71
2021/05/12 11:33:50;;;;;;;6.43;1.30;;;29.00;38.80;;;;;;5089267;28;20302;-70
2021/05/12 11:36:19;;;;;;;4.35;1.70;;;29.00;37.90;;;;;;5096991;28;20253;-73
2021/05/12 11:38:46;;;;;;;4.80;1.50;;;28.90;37.60;;;;;;5104908;28;20208;-71
2021/05/12 11:41:16;;;;;;;6.85;1.33;;;28.80;38.20;;;;;;5109304;28;20228;-71
2021/05/12 11:43:44;;;;;;;7.00;1.35;;;28.70;38.60;;;;;;5095487;28;20550;-69
2021/05/12 11:46:14;;;;;;;8.20;1.40;;;28.70;38.80;;;;;;5095158;28;20236;-73
2021/05/12 11:48:42;;;;;;;3.25;1.35;;;28.70;38.90;;;;;;5097609;28;20287;-73
2021/05/12 11:51:09;;;;;;;3.63;1.50;;;28.70;38.80;;;;;;5099753;28;20296;-70
2021/05/12 11:53:39;;;;;;;11.27;1.67;;;28.80;38.60;;;;;;5100189;28;20272;-73
2021/05/12 11:56:06;;;;;;;4.10;1.33;;;28.90;38.30;;;;;;5098827;28;20219;-72
2021/05/12 11:58:34;;;;;;;4.38;1.50;;;28.90;38.70;;;;;;5099932;28;20706;-71
2021/05/12 12:01:12;;;;;;;6.03;1.55;;;29.00;38.80;;;;;;5090617;28;20287;-72
2021/05/12 12:03:44;;;;;;;3.53;1.40;;;29.10;38.00;;;;;;5098790;28;20557;-70
2021/05/12 12:06:15;;;;;;;5.05;2.03;;;29.10;37.60;;;;;;5093993;28;20201;-69
2021/05/12 12:08:42;;;;;;;5.28;1.58;;;29.10;37.40;;;;;;5096234;28;20386;-74
2021/05/12 12:11:12;;;;;;;5.95;1.58;;;29.10;38.00;;;;;;5096653;28;20580;-72
2021/05/12 12:13:41;;;;;;;3.65;1.50;;;29.10;38.10;;;;;;5093812;28;20263;-72
2021/05/12 12:16:08;;;;;;;5.75;1.65;;;29.10;38.00;;;;;;5092403;28;20686;-73
2021/05/12 12:18:38;;;;;;;6.22;1.52;;;29.00;37.20;;;;;;5094202;28;20216;-70
2021/05/12 12:21:06;;;;;;;4.45;1.42;;;28.90;37.30;;;;;;5082703;28;20292;-72
2021/05/12 12:23:35;;;;;;;6.47;1.58;;;28.90;37.10;;;;;;5095476;28;20243;-72
2021/05/12 12:26:12;;;;;;;3.60;1.40;;;28.80;37.50;;;;;;5096445;28;20394;-70
2021/05/12 12:28:40;;;;;;;4.25;1.70;;;28.80;37.10;;;;;;5095756;28;20287;-68
2021/05/12 12:31:07;;;;;;;3.13;1.17;;;28.80;38.00;;;;;;5096840;28;20235;-73
2021/05/12 12:33:34;;;;;;;4.63;1.20;;;28.90;37.20;;;;;;5096293;28;20714;-72
2021/05/12 12:36:08;;;;;;;3.35;1.73;;;28.80;37.40;;;;;;5094643;28;20249;-74
2021/05/12 12:38:37;;;;;;;2.45;1.23;;;28.90;37.90;;;;;;5092642;28;20200;-71
2021/05/12 12:41:03;;;;;;;3.13;1.60;;;28.90;38.10;;;;;;5104732;28;20203;-71
2021/05/12 12:43:38;;;;;;;4.72;1.88;;;29.00;37.50;;;;;;5103876;28;20287;-68
2021/05/12 12:46:06;;;;;;;4.57;2.10;;;29.00;38.70;;;;;;5105284;28;20203;-71
2021/05/12 12:48:33;;;;;;;7.45;1.45;;;29.00;37.40;;;;;;5105030;28;20220;-71
2021/05/12 12:51:00;;;;;;;2.90;1.35;;;28.80;37.30;;;;;;5100712;28;20259;-73
2021/05/12 12:53:30;;;;;;;3.78;1.77;;;28.80;37.40;;;;;;5105359;28;20669;-65
2021/05/12 12:56:07;;;;;;;5.72;1.45;;;28.80;38.00;;;;;;5097239;28;20329;-70
2021/05/12 12:58:33;;;;;;;5.03;1.48;;;28.90;37.50;;;;;;5093758;28;20283;-69
2021/05/12 13:01:00;;;;;;;2.08;1.42;;;29.00;37.90;;;;;;5096404;28;20251;-68